To NAV CANADA Home Page Login to a new session Search on AWWS site Disclaimer Vers la page française équivalente Tips FAQ What's new on the site To the Forecasts and Observations / NOTAM section To "File a Flight Plan" website Publications and other links Update of the User's profile FIC Telephone Numbers My Weather Data Folder Route Weather Data Regional Weather Data Local Weather Data To the Forecasts and Observations / NOTAM section
Request Generated 09/19/2018 at 05:44:48 UTC . Weather information available at that time is displayed.

METAR/TAF

If you find any discrepancies between the coded METAR/TAF and the plain language METAR/TAF please use the coded METAR/TAF. LWIS bulletins are not decoded in plain language.

TORONTO/LESTER B. PEARSON INTL/ON    

METAR CYYZ 190500Z 33010KT 15SM SCT100 BKN180 BKN260 16/13 A2993 RMK AC3AC2CI1 TR SLP137 DENSITY ALT 800FT=
METAR
LOCATION
CYYZ - TORONTO/LESTER B. PEARSON INTL/ON
DATE - TIME
19 SEPTEMBER 2018 - 0500 UTC
WIND
330 TRUE @ 10  KNOTS
VISIBILITY
15 STAT.  MILES
RUNWAY VISUAL RANGE
WEATHER
CLOUDINESS
SCATTERED CLOUDS (3/8 - 4/8) 10000  FT
BROKEN CLOUDS (5/8 - 7/8) 18000  FT
BROKEN CLOUDS (5/8 - 7/8) 26000  FT
TEMP / DEWPOINT
16 C / 13 C
ALTIMETER
29.93 IN HG
RECENT WEATHER
WIND SHEAR

METAR CYYZ 190400Z 34010KT 15SM FEW180 SCT260 15/12 A2993 RMK AC2CI2 SLP135 DEN TY ALT 800FT=
METAR
LOCATION
CYYZ - TORONTO/LESTER B. PEARSON INTL/ON
DATE - TIME
19 SEPTEMBER 2018 - 0400 UTC
WIND
340 TRUE @ 10  KNOTS
VISIBILITY
15 STAT.  MILES
RUNWAY VISUAL RANGE
WEATHER
CLOUDINESS
FEW CLOUDS (1/8 - 2/8) 18000  FT
SCATTERED CLOUDS (3/8 - 4/8) 26000  FT
TEMP / DEWPOINT
15 C / 12 C
ALTIMETER
29.93 IN HG
RECENT WEATHER
WIND SHEAR

METAR CYYZ 190300Z 35011G17KT 15SM FEW110 FEW260 16/12 A2992 RMK AC1CI2 AC TR S 134 DENSITY ALT 800FT=
METAR
LOCATION
CYYZ - TORONTO/LESTER B. PEARSON INTL/ON
DATE - TIME
19 SEPTEMBER 2018 - 0300 UTC
WIND
350 TRUE @ 11  KNOTS
GUSTS
17 KNOTS
VISIBILITY
15 STAT.  MILES
RUNWAY VISUAL RANGE
WEATHER
CLOUDINESS
FEW CLOUDS (1/8 - 2/8) 11000  FT
FEW CLOUDS (1/8 - 2/8) 26000  FT
TEMP / DEWPOINT
16 C / 12 C
ALTIMETER
29.92 IN HG
RECENT WEATHER
WIND SHEAR

TAF CYYZ 190538Z 1906/2012 34010KT P6SM SCT100 BKN180 FM191100 35012KT P6SM FEW025 BECMG 2003/2005 VRB03KT FM201100 VRB03KT P6SM FEW025 BKN120 RMK NXT FCST BY 190900Z=
TAF
LOCATION

CYYZ - TORONTO/LESTER B. PEARSON INTL/ON
VALIDITY [UTC]
19 SEP - 0538 to
20 SEP - 1200
 
TIMES
[UTC]
WIND
[DEGREES TRUE]
VISIBILITY
[STAT. MILES]
WEATHER
CLOUDINESS
[FEET AGL]
 
19 SEP - 0600 to
19 SEP - 1100
340 @ 10 KNOTS
6+
NIL
10000 SCATTERED
18000 BROKEN
 
19 SEP - 1100 to
20 SEP - 1100
350 @ 12 KNOTS
6+
NIL
2500 FEW
BECOMING
20 SEP - 0300 to
20 SEP - 0500
VARIABLE @ 3 KNOTS
 
 
 
 
20 SEP - 1100 to
20 SEP - 1200
VARIABLE @ 3 KNOTS
6+
NIL
2500 FEW
12000 BROKEN
REMARKS
THE NEXT FORECAST WILL BE ISSUED BY 0900 UTC ON DAY 19


Your time UTC time
Weather data provided by Environment Canada and NAV CANADA